sensor_id;sensor_type;location;lat;lon;timestamp;noise_LAeq;noise_LA_min;noise_LA_max;noise_LA01;noise_LA95
57439;Laerm;43282;47.188;8.896;2023-08-17T00:01:42;42.41;38.18;55.61;;
57439;Laerm;43282;47.188;8.896;2023-08-17T00:04:07;45.34;37.12;55.53;;
57439;Laerm;43282;47.188;8.896;2023-08-17T00:06:33;42.69;38.05;54.08;;
57439;Laerm;43282;47.188;8.896;2023-08-17T00:08:58;41.32;37.88;47.50;;
57439;Laerm;43282;47.188;8.896;2023-08-17T00:11:23;41.62;37.32;52.30;;
57439;Laerm;43282;47.188;8.896;2023-08-17T00:13:49;41.17;38.05;49.08;;
57439;Laerm;43282;47.188;8.896;2023-08-17T00:16:14;45.06;38.05;58.62;;
57439;Laerm;43282;47.188;8.896;2023-08-17T00:18:39;44.80;38.95;57.67;;
57439;Laerm;43282;47.188;8.896;2023-08-17T00:21:05;42.32;38.67;52.00;;
57439;Laerm;43282;47.188;8.896;2023-08-17T00:23:30;46.82;37.32;64.76;;
57439;Laerm;43282;47.188;8.896;2023-08-17T00:25:55;46.23;37.52;60.43;;
57439;Laerm;43282;47.188;8.896;2023-08-17T00:28:20;41.68;38.05;51.54;;
57439;Laerm;43282;47.188;8.896;2023-08-17T00:30:46;41.91;37.70;52.24;;
57439;Laerm;43282;47.188;8.896;2023-08-17T00:33:11;45.34;37.70;60.70;;
57439;Laerm;43282;47.188;8.896;2023-08-17T00:35:36;44.25;38.05;53.39;;
57439;Laerm;43282;47.188;8.896;2023-08-17T00:38:02;49.01;38.52;64.53;;
57439;Laerm;43282;47.188;8.896;2023-08-17T00:40:27;41.87;38.05;53.72;;
57439;Laerm;43282;47.188;8.896;2023-08-17T00:42:53;41.70;38.05;53.19;;
57439;Laerm;43282;47.188;8.896;2023-08-17T00:45:18;44.74;37.32;61.64;;
57439;Laerm;43282;47.188;8.896;2023-08-17T00:47:43;45.13;38.05;58.60;;
57439;Laerm;43282;47.188;8.896;2023-08-17T00:50:09;44.30;38.81;55.72;;
57439;Laerm;43282;47.188;8.896;2023-08-17T00:52:35;47.25;38.67;60.16;;
57439;Laerm;43282;47.188;8.896;2023-08-17T00:55:00;43.51;37.32;54.28;;
57439;Laerm;43282;47.188;8.896;2023-08-17T00:57:27;44.36;38.05;55.99;;
57439;Laerm;43282;47.188;8.896;2023-08-17T00:59:53;43.77;38.52;53.72;;
57439;Laerm;43282;47.188;8.896;2023-08-17T01:02:18;47.15;37.12;62.28;;
57439;Laerm;43282;47.188;8.896;2023-08-17T01:04:44;45.36;37.12;56.88;;
57439;Laerm;43282;47.188;8.896;2023-08-17T01:07:09;45.94;38.21;58.92;;
57439;Laerm;43282;47.188;8.896;2023-08-17T01:09:35;44.49;38.47;54.83;;
57439;Laerm;43282;47.188;8.896;2023-08-17T01:12:07;45.15;38.95;60.26;;
57439;Laerm;43282;47.188;8.896;2023-08-17T01:14:38;44.18;39.08;60.21;;
57439;Laerm;43282;47.188;8.896;2023-08-17T01:17:52;47.69;39.21;62.23;;
57439;Laerm;43282;47.188;8.896;2023-08-17T01:19:51;44.11;38.05;57.30;;
57439;Laerm;43282;47.188;8.896;2023-08-17T01:22:18;42.71;37.12;55.63;;
57439;Laerm;43282;47.188;8.896;2023-08-17T01:24:46;44.41;38.74;58.88;;
57439;Laerm;43282;47.188;8.896;2023-08-17T01:27:11;42.14;36.45;53.53;;
57439;Laerm;43282;47.188;8.896;2023-08-17T01:29:36;43.99;37.70;55.47;;
57439;Laerm;43282;47.188;8.896;2023-08-17T01:32:46;45.19;38.37;58.79;;
57439;Laerm;43282;47.188;8.896;2023-08-17T01:34:54;45.86;37.88;59.97;;
57439;Laerm;43282;47.188;8.896;2023-08-17T01:37:22;48.03;37.70;65.56;;
57439;Laerm;43282;47.188;8.896;2023-08-17T01:39:52;42.39;37.70;53.86;;
57439;Laerm;43282;47.188;8.896;2023-08-17T01:42:20;46.78;38.05;60.88;;
57439;Laerm;43282;47.188;8.896;2023-08-17T01:44:46;41.90;38.21;52.74;;
57439;Laerm;43282;47.188;8.896;2023-08-17T01:47:11;42.29;38.67;48.36;;
57439;Laerm;43282;47.188;8.896;2023-08-17T01:49:36;42.71;38.67;54.35;;
57439;Laerm;43282;47.188;8.896;2023-08-17T01:52:01;45.42;37.88;63.01;;
57439;Laerm;43282;47.188;8.896;2023-08-17T01:54:27;44.61;37.70;58.64;;
57439;Laerm;43282;47.188;8.896;2023-08-17T01:56:53;44.67;38.67;60.86;;
57439;Laerm;43282;47.188;8.896;2023-08-17T01:59:18;40.71;38.32;46.38;;
57439;Laerm;43282;47.188;8.896;2023-08-17T02:01:43;40.29;37.32;43.44;;
57439;Laerm;43282;47.188;8.896;2023-08-17T02:04:08;46.24;37.88;64.92;;
57439;Laerm;43282;47.188;8.896;2023-08-17T02:06:34;42.56;38.05;57.25;;
57439;Laerm;43282;47.188;8.896;2023-08-17T02:08:59;44.94;36.69;60.02;;
57439;Laerm;43282;47.188;8.896;2023-08-17T02:11:24;44.91;37.32;61.58;;
57439;Laerm;43282;47.188;8.896;2023-08-17T02:13:50;43.84;38.81;56.57;;
57439;Laerm;43282;47.188;8.896;2023-08-17T02:16:15;41.12;38.05;47.34;;
57439;Laerm;43282;47.188;8.896;2023-08-17T02:18:40;41.74;38.52;46.71;;
57439;Laerm;43282;47.188;8.896;2023-08-17T02:21:05;46.78;38.87;62.63;;
57439;Laerm;43282;47.188;8.896;2023-08-17T02:23:31;42.33;38.81;50.25;;
57439;Laerm;43282;47.188;8.896;2023-08-17T02:25:56;47.40;38.67;60.82;;
57439;Laerm;43282;47.188;8.896;2023-08-17T02:28:21;42.85;38.81;52.88;;
57439;Laerm;43282;47.188;8.896;2023-08-17T02:30:47;42.16;38.52;53.66;;
57439;Laerm;43282;47.188;8.896;2023-08-17T02:33:13;43.48;39.92;53.28;;
57439;Laerm;43282;47.188;8.896;2023-08-17T02:35:38;45.50;38.37;59.52;;
57439;Laerm;43282;47.188;8.896;2023-08-17T02:38:03;51.01;40.13;65.96;;
57439;Laerm;43282;47.188;8.896;2023-08-17T02:40:29;49.75;39.92;67.88;;
57439;Laerm;43282;47.188;8.896;2023-08-17T02:42:54;46.22;40.33;59.60;;
57439;Laerm;43282;47.188;8.896;2023-08-17T02:45:19;50.91;38.81;70.45;;
57439;Laerm;43282;47.188;8.896;2023-08-17T02:47:45;51.65;40.23;66.12;;
57439;Laerm;43282;47.188;8.896;2023-08-17T02:50:10;48.27;40.43;62.87;;
57439;Laerm;43282;47.188;8.896;2023-08-17T02:52:35;49.45;40.71;65.53;;
57439;Laerm;43282;47.188;8.896;2023-08-17T02:55:00;48.93;39.92;62.28;;
57439;Laerm;43282;47.188;8.896;2023-08-17T02:57:26;56.21;40.62;74.30;;
57439;Laerm;43282;47.188;8.896;2023-08-17T02:59:51;48.61;40.13;64.77;;
57439;Laerm;43282;47.188;8.896;2023-08-17T03:02:16;47.11;41.61;56.36;;
57439;Laerm;43282;47.188;8.896;2023-08-17T03:04:41;50.39;40.13;64.57;;
57439;Laerm;43282;47.188;8.896;2023-08-17T03:07:07;50.29;42.88;60.05;;
57439;Laerm;43282;47.188;8.896;2023-08-17T03:09:32;53.26;42.53;70.37;;
57439;Laerm;43282;47.188;8.896;2023-08-17T03:11:58;53.87;42.98;69.46;;
57439;Laerm;43282;47.188;8.896;2023-08-17T03:14:23;50.39;41.89;64.62;;
57439;Laerm;43282;47.188;8.896;2023-08-17T03:16:48;53.83;43.49;66.41;;
57439;Laerm;43282;47.188;8.896;2023-08-17T03:19:14;56.31;43.44;69.85;;
57439;Laerm;43282;47.188;8.896;2023-08-17T03:21:39;52.53;43.63;63.69;;
57439;Laerm;43282;47.188;8.896;2023-08-17T03:24:05;52.53;44.15;62.42;;
57439;Laerm;43282;47.188;8.896;2023-08-17T03:26:30;54.26;45.04;64.88;;
57439;Laerm;43282;47.188;8.896;2023-08-17T03:28:55;64.68;45.04;79.57;;
57439;Laerm;43282;47.188;8.896;2023-08-17T03:31:21;53.98;45.57;63.92;;
57439;Laerm;43282;47.188;8.896;2023-08-17T03:33:46;54.82;45.04;63.06;;
57439;Laerm;43282;47.188;8.896;2023-08-17T03:36:11;56.63;45.45;68.65;;
57439;Laerm;43282;47.188;8.896;2023-08-17T03:38:37;53.74;44.80;63.68;;
57439;Laerm;43282;47.188;8.896;2023-08-17T03:41:04;56.01;46.52;64.55;;
57439;Laerm;43282;47.188;8.896;2023-08-17T03:43:32;58.76;49.41;76.39;;
57439;Laerm;43282;47.188;8.896;2023-08-17T03:45:57;59.46;50.21;75.10;;
57439;Laerm;43282;47.188;8.896;2023-08-17T03:48:22;55.51;46.23;66.54;;
57439;Laerm;43282;47.188;8.896;2023-08-17T03:50:51;56.14;45.91;66.91;;
57439;Laerm;43282;47.188;8.896;2023-08-17T03:53:17;56.72;47.93;64.19;;
57439;Laerm;43282;47.188;8.896;2023-08-17T03:55:45;58.25;49.93;66.76;;
57439;Laerm;43282;47.188;8.896;2023-08-17T03:58:10;58.85;50.68;68.65;;
57439;Laerm;43282;47.188;8.896;2023-08-17T04:00:35;57.59;49.32;70.37;;
57439;Laerm;43282;47.188;8.896;2023-08-17T04:03:01;58.46;49.83;70.84;;
57439;Laerm;43282;47.188;8.896;2023-08-17T04:05:27;57.98;48.46;67.73;;
57439;Laerm;43282;47.188;8.896;2023-08-17T04:07:52;59.34;48.03;71.04;;
57439;Laerm;43282;47.188;8.896;2023-08-17T04:10:18;58.65;49.75;67.77;;
57439;Laerm;43282;47.188;8.896;2023-08-17T04:12:43;59.01;52.85;67.59;;
57439;Laerm;43282;47.188;8.896;2023-08-17T04:15:08;59.14;52.28;68.98;;
57439;Laerm;43282;47.188;8.896;2023-08-17T04:17:34;58.18;50.78;69.89;;
57439;Laerm;43282;47.188;8.896;2023-08-17T04:19:59;58.84;53.04;67.16;;
57439;Laerm;43282;47.188;8.896;2023-08-17T04:22:25;61.83;50.30;78.30;;
57439;Laerm;43282;47.188;8.896;2023-08-17T04:24:50;60.17;53.40;70.59;;
57439;Laerm;43282;47.188;8.896;2023-08-17T04:27:15;59.38;51.59;72.51;;
57439;Laerm;43282;47.188;8.896;2023-08-17T04:29:40;60.68;53.04;74.25;;
57439;Laerm;43282;47.188;8.896;2023-08-17T04:32:15;59.43;53.20;67.48;;
57439;Laerm;43282;47.188;8.896;2023-08-17T04:34:41;61.11;52.67;71.31;;
57439;Laerm;43282;47.188;8.896;2023-08-17T04:37:06;59.57;53.18;66.93;;
57439;Laerm;43282;47.188;8.896;2023-08-17T04:39:31;59.35;50.77;70.01;;
57439;Laerm;43282;47.188;8.896;2023-08-17T04:41:57;61.06;53.16;71.50;;
57439;Laerm;43282;47.188;8.896;2023-08-17T04:44:23;59.98;52.89;72.15;;
57439;Laerm;43282;47.188;8.896;2023-08-17T04:46:48;60.57;52.91;70.30;;
57439;Laerm;43282;47.188;8.896;2023-08-17T04:49:13;60.89;54.42;69.88;;
57439;Laerm;43282;47.188;8.896;2023-08-17T04:51:39;60.95;54.41;69.88;;
57439;Laerm;43282;47.188;8.896;2023-08-17T04:54:04;59.67;53.86;67.59;;
57439;Laerm;43282;47.188;8.896;2023-08-17T04:56:29;59.57;51.59;69.58;;
57439;Laerm;43282;47.188;8.896;2023-08-17T04:58:54;59.26;50.10;67.41;;
57439;Laerm;43282;47.188;8.896;2023-08-17T05:01:20;59.04;51.59;67.94;;
57439;Laerm;43282;47.188;8.896;2023-08-17T05:03:45;61.89;52.86;74.51;;
57439;Laerm;43282;47.188;8.896;2023-08-17T05:06:11;61.03;53.34;82.15;;
57439;Laerm;43282;47.188;8.896;2023-08-17T05:08:36;62.03;52.77;78.50;;
57439;Laerm;43282;47.188;8.896;2023-08-17T05:11:02;59.68;51.36;71.19;;
57439;Laerm;43282;47.188;8.896;2023-08-17T05:13:27;59.58;52.31;66.83;;
57439;Laerm;43282;47.188;8.896;2023-08-17T05:15:53;60.83;53.01;70.05;;
57439;Laerm;43282;47.188;8.896;2023-08-17T05:18:18;64.74;53.92;86.87;;
57439;Laerm;43282;47.188;8.896;2023-08-17T05:20:43;60.56;52.77;81.59;;
57439;Laerm;43282;47.188;8.896;2023-08-17T05:23:08;61.71;53.76;77.30;;
57439;Laerm;43282;47.188;8.896;2023-08-17T05:25:34;62.24;52.44;75.14;;
57439;Laerm;43282;47.188;8.896;2023-08-17T05:27:59;60.64;52.19;70.68;;
57439;Laerm;43282;47.188;8.896;2023-08-17T05:30:24;61.27;52.30;92.88;;
57439;Laerm;43282;47.188;8.896;2023-08-17T05:32:49;59.58;53.05;70.60;;
57439;Laerm;43282;47.188;8.896;2023-08-17T05:35:15;59.80;52.03;75.55;;
57439;Laerm;43282;47.188;8.896;2023-08-17T05:37:40;60.31;51.14;78.11;;
57439;Laerm;43282;47.188;8.896;2023-08-17T05:40:05;67.71;52.74;89.52;;
57439;Laerm;43282;47.188;8.896;2023-08-17T05:42:31;57.86;50.64;65.81;;
57439;Laerm;43282;47.188;8.896;2023-08-17T05:44:56;58.88;49.53;67.11;;
57439;Laerm;43282;47.188;8.896;2023-08-17T05:47:21;61.15;51.40;79.88;;
57439;Laerm;43282;47.188;8.896;2023-08-17T05:49:46;58.05;48.48;67.95;;
57439;Laerm;43282;47.188;8.896;2023-08-17T05:52:12;58.46;48.64;70.64;;
57439;Laerm;43282;47.188;8.896;2023-08-17T05:54:37;58.36;48.60;71.61;;
57439;Laerm;43282;47.188;8.896;2023-08-17T05:57:03;60.43;49.16;73.94;;
57439;Laerm;43282;47.188;8.896;2023-08-17T05:59:28;58.45;47.74;73.11;;
57439;Laerm;43282;47.188;8.896;2023-08-17T06:01:53;57.11;47.10;70.77;;
57439;Laerm;43282;47.188;8.896;2023-08-17T06:04:19;59.59;48.60;74.12;;
57439;Laerm;43282;47.188;8.896;2023-08-17T06:06:46;55.89;46.13;66.86;;
57439;Laerm;43282;47.188;8.896;2023-08-17T06:09:11;56.48;46.66;68.99;;
57439;Laerm;43282;47.188;8.896;2023-08-17T06:11:36;56.63;45.14;73.06;;
57439;Laerm;43282;47.188;8.896;2023-08-17T06:14:02;56.72;48.16;69.33;;
57439;Laerm;43282;47.188;8.896;2023-08-17T06:16:27;58.28;47.62;70.99;;
57439;Laerm;43282;47.188;8.896;2023-08-17T06:18:52;59.90;48.57;72.99;;
57439;Laerm;43282;47.188;8.896;2023-08-17T06:21:18;54.69;44.83;64.82;;
57439;Laerm;43282;47.188;8.896;2023-08-17T06:23:43;54.25;46.07;68.28;;
57439;Laerm;43282;47.188;8.896;2023-08-17T06:26:09;59.13;47.09;72.01;;
57439;Laerm;43282;47.188;8.896;2023-08-17T06:28:34;58.41;46.35;75.31;;
57439;Laerm;43282;47.188;8.896;2023-08-17T06:30:59;59.50;48.10;74.67;;
57439;Laerm;43282;47.188;8.896;2023-08-17T06:33:25;58.50;45.23;74.05;;
57439;Laerm;43282;47.188;8.896;2023-08-17T06:35:50;54.52;44.03;70.70;;
57439;Laerm;43282;47.188;8.896;2023-08-17T06:38:16;54.82;44.11;72.16;;
57439;Laerm;43282;47.188;8.896;2023-08-17T06:40:41;56.78;44.47;78.50;;
57439;Laerm;43282;47.188;8.896;2023-08-17T06:43:06;56.43;45.72;69.14;;
57439;Laerm;43282;47.188;8.896;2023-08-17T06:45:32;56.70;46.55;70.42;;
57439;Laerm;43282;47.188;8.896;2023-08-17T06:47:57;57.56;48.60;71.75;;
57439;Laerm;43282;47.188;8.896;2023-08-17T06:50:22;55.31;46.28;66.64;;
57439;Laerm;43282;47.188;8.896;2023-08-17T06:52:48;56.47;47.54;66.81;;
57439;Laerm;43282;47.188;8.896;2023-08-17T06:55:13;56.95;45.11;65.37;;
57439;Laerm;43282;47.188;8.896;2023-08-17T06:57:50;55.25;46.71;71.94;;
57439;Laerm;43282;47.188;8.896;2023-08-17T07:00:17;57.29;45.86;73.96;;
57439;Laerm;43282;47.188;8.896;2023-08-17T07:02:45;58.03;44.65;71.91;;
57439;Laerm;43282;47.188;8.896;2023-08-17T07:05:11;56.88;44.31;69.69;;
57439;Laerm;43282;47.188;8.896;2023-08-17T07:07:36;58.57;46.34;75.12;;
57439;Laerm;43282;47.188;8.896;2023-08-17T07:10:02;56.03;46.20;65.19;;
57439;Laerm;43282;47.188;8.896;2023-08-17T07:12:27;55.80;45.01;67.43;;
57439;Laerm;43282;47.188;8.896;2023-08-17T07:14:53;56.79;45.86;71.03;;
57439;Laerm;43282;47.188;8.896;2023-08-17T07:17:18;57.21;44.90;71.84;;
57439;Laerm;43282;47.188;8.896;2023-08-17T07:19:44;55.01;46.48;64.83;;
57439;Laerm;43282;47.188;8.896;2023-08-17T07:22:09;56.14;47.06;66.89;;
57439;Laerm;43282;47.188;8.896;2023-08-17T07:24:35;56.61;47.55;67.27;;
57439;Laerm;43282;47.188;8.896;2023-08-17T07:27:00;63.90;54.85;71.67;;
57439;Laerm;43282;47.188;8.896;2023-08-17T07:29:25;64.92;60.83;76.02;;
57439;Laerm;43282;47.188;8.896;2023-08-17T07:31:51;61.92;53.01;71.17;;
57439;Laerm;43282;47.188;8.896;2023-08-17T07:34:16;55.03;42.98;70.57;;
57439;Laerm;43282;47.188;8.896;2023-08-17T07:36:42;59.71;43.29;74.09;;
57439;Laerm;43282;47.188;8.896;2023-08-17T07:39:07;56.36;43.49;74.12;;
57439;Laerm;43282;47.188;8.896;2023-08-17T07:41:32;57.97;45.27;72.98;;
57439;Laerm;43282;47.188;8.896;2023-08-17T07:43:58;57.98;45.54;69.17;;
57439;Laerm;43282;47.188;8.896;2023-08-17T07:46:23;56.31;47.22;68.70;;
57439;Laerm;43282;47.188;8.896;2023-08-17T07:48:48;58.65;45.97;70.79;;
57439;Laerm;43282;47.188;8.896;2023-08-17T07:51:14;57.17;44.11;71.64;;
57439;Laerm;43282;47.188;8.896;2023-08-17T07:53:39;60.83;45.99;77.76;;
57439;Laerm;43282;47.188;8.896;2023-08-17T07:56:04;54.89;44.35;66.03;;
57439;Laerm;43282;47.188;8.896;2023-08-17T07:58:30;54.08;44.52;65.55;;
57439;Laerm;43282;47.188;8.896;2023-08-17T08:00:55;56.44;44.90;67.81;;
57439;Laerm;43282;47.188;8.896;2023-08-17T08:03:20;57.05;44.07;72.59;;
57439;Laerm;43282;47.188;8.896;2023-08-17T08:05:46;59.37;43.72;74.03;;
57439;Laerm;43282;47.188;8.896;2023-08-17T08:08:11;55.45;44.80;64.71;;
57439;Laerm;43282;47.188;8.896;2023-08-17T08:10:36;56.41;45.60;66.67;;
57439;Laerm;43282;47.188;8.896;2023-08-17T08:13:02;58.96;43.86;76.58;;
57439;Laerm;43282;47.188;8.896;2023-08-17T08:15:28;59.65;44.51;73.08;;
57439;Laerm;43282;47.188;8.896;2023-08-17T08:17:56;54.56;44.58;64.39;;
57439;Laerm;43282;47.188;8.896;2023-08-17T08:20:22;62.45;44.87;80.55;;
57439;Laerm;43282;47.188;8.896;2023-08-17T08:22:47;58.08;42.59;75.12;;
57439;Laerm;43282;47.188;8.896;2023-08-17T08:25:12;53.99;43.24;66.93;;
57439;Laerm;43282;47.188;8.896;2023-08-17T08:27:40;55.56;43.24;69.04;;
57439;Laerm;43282;47.188;8.896;2023-08-17T08:30:06;56.32;43.68;71.27;;
57439;Laerm;43282;47.188;8.896;2023-08-17T08:32:31;54.14;43.39;71.83;;
57439;Laerm;43282;47.188;8.896;2023-08-17T08:34:56;57.52;44.35;73.44;;
57439;Laerm;43282;47.188;8.896;2023-08-17T08:37:22;58.99;44.94;75.04;;
57439;Laerm;43282;47.188;8.896;2023-08-17T08:39:48;58.56;46.28;72.65;;
57439;Laerm;43282;47.188;8.896;2023-08-17T08:42:14;58.30;45.36;74.63;;
57439;Laerm;43282;47.188;8.896;2023-08-17T08:44:39;59.23;45.27;75.37;;
57439;Laerm;43282;47.188;8.896;2023-08-17T08:47:04;62.18;44.90;78.02;;
57439;Laerm;43282;47.188;8.896;2023-08-17T08:49:30;56.49;43.99;71.41;;
57439;Laerm;43282;47.188;8.896;2023-08-17T08:51:56;57.12;46.10;76.87;;
57439;Laerm;43282;47.188;8.896;2023-08-17T08:54:24;58.17;44.03;73.67;;
57439;Laerm;43282;47.188;8.896;2023-08-17T08:56:59;54.13;43.34;64.82;;
57439;Laerm;43282;47.188;8.896;2023-08-17T08:59:26;53.63;43.77;66.13;;
57439;Laerm;43282;47.188;8.896;2023-08-17T09:01:52;58.50;43.86;74.15;;
57439;Laerm;43282;47.188;8.896;2023-08-17T09:04:23;55.78;45.14;65.74;;
57439;Laerm;43282;47.188;8.896;2023-08-17T09:06:58;59.64;45.27;75.49;;
57439;Laerm;43282;47.188;8.896;2023-08-17T09:09:23;56.79;45.48;70.92;;
57439;Laerm;43282;47.188;8.896;2023-08-17T09:11:49;56.78;44.58;70.21;;
57439;Laerm;43282;47.188;8.896;2023-08-17T09:14:23;58.22;46.48;74.02;;
57439;Laerm;43282;47.188;8.896;2023-08-17T09:16:48;54.10;44.69;69.72;;
57439;Laerm;43282;47.188;8.896;2023-08-17T09:19:14;57.24;44.58;71.05;;
57439;Laerm;43282;47.188;8.896;2023-08-17T09:21:39;57.59;45.04;68.37;;
57439;Laerm;43282;47.188;8.896;2023-08-17T09:24:04;55.97;43.77;70.78;;
57439;Laerm;43282;47.188;8.896;2023-08-17T09:26:31;57.07;44.65;72.25;;
57439;Laerm;43282;47.188;8.896;2023-08-17T09:28:59;55.95;44.59;66.42;;
57439;Laerm;43282;47.188;8.896;2023-08-17T09:31:24;57.67;43.81;70.97;;
57439;Laerm;43282;47.188;8.896;2023-08-17T09:33:50;58.08;44.76;76.09;;
57439;Laerm;43282;47.188;8.896;2023-08-17T09:36:19;59.43;44.11;85.02;;
57439;Laerm;43282;47.188;8.896;2023-08-17T09:38:45;57.04;45.54;69.18;;
57439;Laerm;43282;47.188;8.896;2023-08-17T09:41:12;55.57;43.34;69.05;;
57439;Laerm;43282;47.188;8.896;2023-08-17T09:43:38;55.98;43.90;68.67;;
57439;Laerm;43282;47.188;8.896;2023-08-17T09:46:04;56.23;43.99;70.52;;
57439;Laerm;43282;47.188;8.896;2023-08-17T09:48:29;55.16;43.29;67.46;;
57439;Laerm;43282;47.188;8.896;2023-08-17T09:50:56;56.01;44.58;75.05;;
57439;Laerm;43282;47.188;8.896;2023-08-17T09:53:21;56.74;44.54;70.91;;
57439;Laerm;43282;47.188;8.896;2023-08-17T09:55:47;56.62;44.43;67.82;;
57439;Laerm;43282;47.188;8.896;2023-08-17T09:58:13;54.28;43.81;65.33;;
57439;Laerm;43282;47.188;8.896;2023-08-17T10:00:42;59.57;44.73;77.45;;
57439;Laerm;43282;47.188;8.896;2023-08-17T10:03:08;56.23;43.54;67.17;;
57439;Laerm;43282;47.188;8.896;2023-08-17T10:05:35;60.23;44.03;74.49;;
57439;Laerm;43282;47.188;8.896;2023-08-17T10:08:03;56.63;45.17;70.89;;
57439;Laerm;43282;47.188;8.896;2023-08-17T10:10:30;54.51;44.11;67.02;;
57439;Laerm;43282;47.188;8.896;2023-08-17T10:13:00;57.01;43.34;72.06;;
57439;Laerm;43282;47.188;8.896;2023-08-17T10:15:32;55.58;43.58;69.10;;
57439;Laerm;43282;47.188;8.896;2023-08-17T10:18:00;56.72;43.63;71.61;;
57439;Laerm;43282;47.188;8.896;2023-08-17T10:20:28;53.91;43.04;63.41;;
57439;Laerm;43282;47.188;8.896;2023-08-17T10:23:37;55.85;43.44;68.81;;
57439;Laerm;43282;47.188;8.896;2023-08-17T10:25:43;53.48;43.34;66.71;;
57439;Laerm;43282;47.188;8.896;2023-08-17T10:28:12;54.80;43.39;69.42;;
57439;Laerm;43282;47.188;8.896;2023-08-17T10:30:37;54.46;42.98;70.21;;
57439;Laerm;43282;47.188;8.896;2023-08-17T10:33:06;55.63;43.19;76.67;;
57439;Laerm;43282;47.188;8.896;2023-08-17T10:35:33;50.70;42.69;68.49;;
57439;Laerm;43282;47.188;8.896;2023-08-17T10:37:58;54.28;43.14;65.18;;
57439;Laerm;43282;47.188;8.896;2023-08-17T10:40:27;53.91;43.29;67.94;;
57439;Laerm;43282;47.188;8.896;2023-08-17T10:42:53;54.95;42.88;64.90;;
57439;Laerm;43282;47.188;8.896;2023-08-17T10:47:59;58.31;44.73;71.76;;
57439;Laerm;43282;47.188;8.896;2023-08-17T10:50:24;56.35;44.54;69.51;;
57439;Laerm;43282;47.188;8.896;2023-08-17T10:52:50;58.98;44.51;74.18;;
57439;Laerm;43282;47.188;8.896;2023-08-17T10:55:16;59.98;45.01;77.54;;
57439;Laerm;43282;47.188;8.896;2023-08-17T10:57:42;56.44;44.83;70.02;;
57439;Laerm;43282;47.188;8.896;2023-08-17T11:02:56;59.19;46.48;75.29;;
57439;Laerm;43282;47.188;8.896;2023-08-17T11:05:43;57.11;43.86;73.64;;
57439;Laerm;43282;47.188;8.896;2023-08-17T11:08:11;58.40;43.14;75.33;;
57439;Laerm;43282;47.188;8.896;2023-08-17T11:10:47;60.18;43.86;75.55;;
57439;Laerm;43282;47.188;8.896;2023-08-17T11:13:13;56.83;43.94;70.37;;
57439;Laerm;43282;47.188;8.896;2023-08-17T11:15:39;58.02;43.29;75.34;;
57439;Laerm;43282;47.188;8.896;2023-08-17T11:18:08;60.13;42.76;74.44;;
57439;Laerm;43282;47.188;8.896;2023-08-17T11:20:34;61.62;43.49;77.21;;
57439;Laerm;43282;47.188;8.896;2023-08-17T11:23:00;59.73;44.23;74.80;;
57439;Laerm;43282;47.188;8.896;2023-08-17T11:25:26;54.11;43.90;65.94;;
57439;Laerm;43282;47.188;8.896;2023-08-17T11:27:52;52.26;42.71;64.29;;
57439;Laerm;43282;47.188;8.896;2023-08-17T11:30:17;59.20;43.14;75.62;;
57439;Laerm;43282;47.188;8.896;2023-08-17T11:32:43;55.80;42.88;66.40;;
57439;Laerm;43282;47.188;8.896;2023-08-17T11:35:08;57.21;43.09;74.34;;
57439;Laerm;43282;47.188;8.896;2023-08-17T11:37:33;54.78;43.09;65.26;;
57439;Laerm;43282;47.188;8.896;2023-08-17T11:39:59;58.21;44.62;73.28;;
57439;Laerm;43282;47.188;8.896;2023-08-17T11:42:24;52.62;43.34;64.41;;
57439;Laerm;43282;47.188;8.896;2023-08-17T11:44:50;55.87;42.98;67.69;;
57439;Laerm;43282;47.188;8.896;2023-08-17T11:47:15;58.38;44.76;72.23;;
57439;Laerm;43282;47.188;8.896;2023-08-17T11:49:41;56.56;42.59;70.41;;
57439;Laerm;43282;47.188;8.896;2023-08-17T11:52:08;58.58;44.11;71.48;;
57439;Laerm;43282;47.188;8.896;2023-08-17T11:54:34;56.93;43.72;68.58;;
57439;Laerm;43282;47.188;8.896;2023-08-17T11:56:59;54.90;42.65;66.31;;
57439;Laerm;43282;47.188;8.896;2023-08-17T11:59:25;56.87;42.22;77.53;;
57439;Laerm;43282;47.188;8.896;2023-08-17T12:01:52;57.04;44.31;70.31;;
57439;Laerm;43282;47.188;8.896;2023-08-17T12:04:20;60.78;44.62;73.93;;
57439;Laerm;43282;47.188;8.896;2023-08-17T12:06:45;53.13;43.34;62.63;;
57439;Laerm;43282;47.188;8.896;2023-08-17T12:09:11;59.30;46.30;73.98;;
57439;Laerm;43282;47.188;8.896;2023-08-17T12:11:39;55.31;48.39;72.67;;
57439;Laerm;43282;47.188;8.896;2023-08-17T12:14:08;58.30;47.93;71.04;;
57439;Laerm;43282;47.188;8.896;2023-08-17T12:16:35;59.04;47.02;70.41;;
57439;Laerm;43282;47.188;8.896;2023-08-17T12:19:00;56.73;48.85;64.51;;
57439;Laerm;43282;47.188;8.896;2023-08-17T12:21:25;58.05;49.38;67.36;;
57439;Laerm;43282;47.188;8.896;2023-08-17T12:23:50;61.09;51.50;75.26;;
57439;Laerm;43282;47.188;8.896;2023-08-17T12:26:22;58.37;49.95;72.54;;
57439;Laerm;43282;47.188;8.896;2023-08-17T12:28:48;58.51;50.17;68.72;;
57439;Laerm;43282;47.188;8.896;2023-08-17T12:31:14;59.04;49.56;71.68;;
57439;Laerm;43282;47.188;8.896;2023-08-17T12:33:39;57.20;48.84;66.09;;
57439;Laerm;43282;47.188;8.896;2023-08-17T12:36:04;58.49;49.81;67.71;;
57439;Laerm;43282;47.188;8.896;2023-08-17T12:38:31;60.02;51.23;73.16;;
57439;Laerm;43282;47.188;8.896;2023-08-17T12:40:57;59.62;50.25;75.86;;
57439;Laerm;43282;47.188;8.896;2023-08-17T12:43:22;59.74;50.26;75.09;;
57439;Laerm;43282;47.188;8.896;2023-08-17T12:45:47;59.68;51.67;67.96;;
57439;Laerm;43282;47.188;8.896;2023-08-17T12:48:13;62.02;50.30;76.80;;
57439;Laerm;43282;47.188;8.896;2023-08-17T12:50:38;56.69;48.34;65.93;;
57439;Laerm;43282;47.188;8.896;2023-08-17T12:53:03;59.04;51.08;70.99;;
57439;Laerm;43282;47.188;8.896;2023-08-17T12:55:29;61.73;53.05;74.00;;
57439;Laerm;43282;47.188;8.896;2023-08-17T12:57:54;60.45;50.44;76.18;;
57439;Laerm;43282;47.188;8.896;2023-08-17T13:00:19;63.16;54.25;79.99;;
57439;Laerm;43282;47.188;8.896;2023-08-17T13:02:44;62.76;54.07;73.63;;
57439;Laerm;43282;47.188;8.896;2023-08-17T13:05:11;60.94;51.81;79.40;;
57439;Laerm;43282;47.188;8.896;2023-08-17T13:07:36;65.13;54.38;80.75;;
57439;Laerm;43282;47.188;8.896;2023-08-17T13:10:02;63.02;55.79;75.15;;
57439;Laerm;43282;47.188;8.896;2023-08-17T13:12:27;63.46;55.54;84.15;;
57439;Laerm;43282;47.188;8.896;2023-08-17T13:14:53;62.77;53.24;77.43;;
57439;Laerm;43282;47.188;8.896;2023-08-17T13:17:18;62.96;53.57;84.73;;
57439;Laerm;43282;47.188;8.896;2023-08-17T13:19:43;59.65;51.70;76.98;;
57439;Laerm;43282;47.188;8.896;2023-08-17T13:22:08;62.36;53.58;83.28;;
57439;Laerm;43282;47.188;8.896;2023-08-17T13:24:35;62.33;53.59;77.69;;
57439;Laerm;43282;47.188;8.896;2023-08-17T13:27:00;61.13;54.33;75.51;;
57439;Laerm;43282;47.188;8.896;2023-08-17T13:29:25;61.71;54.66;80.42;;
57439;Laerm;43282;47.188;8.896;2023-08-17T13:31:51;60.22;53.37;73.47;;
57439;Laerm;43282;47.188;8.896;2023-08-17T13:34:16;62.28;53.78;72.34;;
57439;Laerm;43282;47.188;8.896;2023-08-17T13:36:41;62.02;52.15;75.04;;
57439;Laerm;43282;47.188;8.896;2023-08-17T13:39:07;63.18;53.76;79.92;;
57439;Laerm;43282;47.188;8.896;2023-08-17T13:41:32;59.61;52.66;67.73;;
57439;Laerm;43282;47.188;8.896;2023-08-17T13:43:57;59.84;52.76;74.53;;